sensor_id;sensor_type;location;lat;lon;timestamp;P1;durP1;ratioP1;P2;durP2;ratioP2
14892;SDS011;7538;53.626;9.906;2022-10-30T00:02:02;26.13;;;20.00;;
14892;SDS011;7538;53.626;9.906;2022-10-30T00:04:29;29.85;;;19.92;;
14892;SDS011;7538;53.626;9.906;2022-10-30T00:06:56;33.75;;;21.48;;
14892;SDS011;7538;53.626;9.906;2022-10-30T00:09:23;26.75;;;19.88;;
14892;SDS011;7538;53.626;9.906;2022-10-30T00:11:51;32.65;;;21.67;;
14892;SDS011;7538;53.626;9.906;2022-10-30T00:14:18;33.28;;;21.17;;
14892;SDS011;7538;53.626;9.906;2022-10-30T00:16:45;27.38;;;20.33;;
14892;SDS011;7538;53.626;9.906;2022-10-30T00:19:11;30.55;;;19.58;;
14892;SDS011;7538;53.626;9.906;2022-10-30T00:21:38;32.83;;;21.42;;
14892;SDS011;7538;53.626;9.906;2022-10-30T00:24:05;30.23;;;20.38;;
14892;SDS011;7538;53.626;9.906;2022-10-30T00:26:32;41.30;;;22.23;;
14892;SDS011;7538;53.626;9.906;2022-10-30T00:29:00;25.92;;;19.88;;
14892;SDS011;7538;53.626;9.906;2022-10-30T00:31:27;34.60;;;22.13;;
14892;SDS011;7538;53.626;9.906;2022-10-30T00:33:54;34.97;;;20.60;;
14892;SDS011;7538;53.626;9.906;2022-10-30T00:36:21;30.05;;;21.00;;
14892;SDS011;7538;53.626;9.906;2022-10-30T00:38:48;28.85;;;21.33;;
14892;SDS011;7538;53.626;9.906;2022-10-30T00:41:16;28.67;;;19.35;;
14892;SDS011;7538;53.626;9.906;2022-10-30T00:43:44;25.02;;;17.55;;
14892;SDS011;7538;53.626;9.906;2022-10-30T00:46:15;31.05;;;20.48;;
14892;SDS011;7538;53.626;9.906;2022-10-30T00:48:46;27.52;;;18.60;;
14892;SDS011;7538;53.626;9.906;2022-10-30T00:51:16;24.48;;;17.40;;
14892;SDS011;7538;53.626;9.906;2022-10-30T00:53:44;21.63;;;16.77;;
14892;SDS011;7538;53.626;9.906;2022-10-30T00:56:13;23.42;;;17.13;;
14892;SDS011;7538;53.626;9.906;2022-10-30T00:58:43;26.13;;;18.33;;
14892;SDS011;7538;53.626;9.906;2022-10-30T01:01:15;25.35;;;17.95;;
14892;SDS011;7538;53.626;9.906;2022-10-30T01:03:44;31.88;;;21.45;;
14892;SDS011;7538;53.626;9.906;2022-10-30T01:06:13;27.30;;;18.48;;
14892;SDS011;7538;53.626;9.906;2022-10-30T01:08:42;28.33;;;21.63;;
14892;SDS011;7538;53.626;9.906;2022-10-30T01:11:10;28.20;;;21.50;;
14892;SDS011;7538;53.626;9.906;2022-10-30T01:13:37;27.02;;;20.50;;
14892;SDS011;7538;53.626;9.906;2022-10-30T01:16:16;29.48;;;21.83;;
14892;SDS011;7538;53.626;9.906;2022-10-30T01:18:56;26.00;;;20.90;;
14892;SDS011;7538;53.626;9.906;2022-10-30T01:21:30;27.95;;;21.58;;
14892;SDS011;7538;53.626;9.906;2022-10-30T01:24:14;30.30;;;24.40;;
14892;SDS011;7538;53.626;9.906;2022-10-30T01:26:53;29.05;;;22.90;;
14892;SDS011;7538;53.626;9.906;2022-10-30T01:29:34;33.92;;;25.52;;
14892;SDS011;7538;53.626;9.906;2022-10-30T01:32:18;33.97;;;27.02;;
14892;SDS011;7538;53.626;9.906;2022-10-30T01:34:58;31.88;;;27.40;;
14892;SDS011;7538;53.626;9.906;2022-10-30T01:37:31;33.35;;;28.63;;
14892;SDS011;7538;53.626;9.906;2022-10-30T01:40:05;35.13;;;28.08;;
14892;SDS011;7538;53.626;9.906;2022-10-30T01:42:47;31.58;;;28.05;;
14892;SDS011;7538;53.626;9.906;2022-10-30T01:45:17;42.22;;;29.40;;
14892;SDS011;7538;53.626;9.906;2022-10-30T01:48:01;34.17;;;27.13;;
14892;SDS011;7538;53.626;9.906;2022-10-30T01:50:42;28.25;;;25.10;;
14892;SDS011;7538;53.626;9.906;2022-10-30T01:53:15;26.55;;;22.67;;
14892;SDS011;7538;53.626;9.906;2022-10-30T01:55:52;28.00;;;24.13;;
14892;SDS011;7538;53.626;9.906;2022-10-30T01:58:27;26.13;;;22.50;;
14892;SDS011;7538;53.626;9.906;2022-10-30T02:01:00;28.58;;;23.25;;
14892;SDS011;7538;53.626;9.906;2022-10-30T02:03:29;29.70;;;23.67;;
14892;SDS011;7538;53.626;9.906;2022-10-30T02:05:56;28.50;;;23.65;;
14892;SDS011;7538;53.626;9.906;2022-10-30T02:08:23;27.98;;;23.20;;
14892;SDS011;7538;53.626;9.906;2022-10-30T02:10:50;26.23;;;22.83;;
14892;SDS011;7538;53.626;9.906;2022-10-30T02:13:18;24.58;;;22.00;;
14892;SDS011;7538;53.626;9.906;2022-10-30T02:15:45;25.30;;;21.77;;
14892;SDS011;7538;53.626;9.906;2022-10-30T02:18:13;27.20;;;21.77;;
14892;SDS011;7538;53.626;9.906;2022-10-30T02:20:41;24.30;;;21.70;;
14892;SDS011;7538;53.626;9.906;2022-10-30T02:23:08;24.23;;;21.63;;
14892;SDS011;7538;53.626;9.906;2022-10-30T02:25:37;25.25;;;21.20;;
14892;SDS011;7538;53.626;9.906;2022-10-30T02:28:04;24.67;;;21.23;;
14892;SDS011;7538;53.626;9.906;2022-10-30T02:30:31;23.00;;;20.23;;
14892;SDS011;7538;53.626;9.906;2022-10-30T02:32:58;23.92;;;20.70;;
14892;SDS011;7538;53.626;9.906;2022-10-30T02:35:24;26.58;;;19.50;;
14892;SDS011;7538;53.626;9.906;2022-10-30T02:37:52;22.98;;;19.02;;
14892;SDS011;7538;53.626;9.906;2022-10-30T02:40:19;25.83;;;20.02;;
14892;SDS011;7538;53.626;9.906;2022-10-30T02:42:50;27.58;;;20.90;;
14892;SDS011;7538;53.626;9.906;2022-10-30T02:45:17;25.98;;;19.77;;
14892;SDS011;7538;53.626;9.906;2022-10-30T02:47:44;21.73;;;19.10;;
14892;SDS011;7538;53.626;9.906;2022-10-30T02:50:11;23.95;;;18.60;;
14892;SDS011;7538;53.626;9.906;2022-10-30T02:52:38;25.58;;;19.65;;
14892;SDS011;7538;53.626;9.906;2022-10-30T02:55:06;26.30;;;18.92;;
14892;SDS011;7538;53.626;9.906;2022-10-30T02:57:33;23.13;;;17.60;;
14892;SDS011;7538;53.626;9.906;2022-10-30T03:00:00;24.15;;;18.40;;
14892;SDS011;7538;53.626;9.906;2022-10-30T03:02:27;24.40;;;19.42;;
14892;SDS011;7538;53.626;9.906;2022-10-30T03:04:53;22.33;;;17.48;;
14892;SDS011;7538;53.626;9.906;2022-10-30T03:07:20;20.83;;;17.73;;
14892;SDS011;7538;53.626;9.906;2022-10-30T03:09:47;19.73;;;17.30;;
14892;SDS011;7538;53.626;9.906;2022-10-30T03:12:15;20.15;;;17.60;;
14892;SDS011;7538;53.626;9.906;2022-10-30T03:14:42;21.90;;;16.95;;
14892;SDS011;7538;53.626;9.906;2022-10-30T03:17:08;25.58;;;18.08;;
14892;SDS011;7538;53.626;9.906;2022-10-30T03:19:35;22.15;;;17.05;;
14892;SDS011;7538;53.626;9.906;2022-10-30T03:22:02;18.88;;;15.85;;
14892;SDS011;7538;53.626;9.906;2022-10-30T03:24:29;20.00;;;17.23;;
14892;SDS011;7538;53.626;9.906;2022-10-30T03:26:56;20.90;;;16.90;;
14892;SDS011;7538;53.626;9.906;2022-10-30T03:29:24;19.33;;;15.80;;
14892;SDS011;7538;53.626;9.906;2022-10-30T03:31:51;20.92;;;16.70;;
14892;SDS011;7538;53.626;9.906;2022-10-30T03:34:17;24.00;;;17.17;;
14892;SDS011;7538;53.626;9.906;2022-10-30T03:36:44;19.58;;;17.13;;
14892;SDS011;7538;53.626;9.906;2022-10-30T03:39:11;20.52;;;17.02;;
14892;SDS011;7538;53.626;9.906;2022-10-30T03:41:38;21.40;;;16.63;;
14892;SDS011;7538;53.626;9.906;2022-10-30T03:44:07;20.02;;;16.30;;
14892;SDS011;7538;53.626;9.906;2022-10-30T03:46:35;19.67;;;16.83;;
14892;SDS011;7538;53.626;9.906;2022-10-30T03:49:03;21.48;;;17.02;;
14892;SDS011;7538;53.626;9.906;2022-10-30T03:51:29;22.95;;;16.35;;
14892;SDS011;7538;53.626;9.906;2022-10-30T03:53:56;22.33;;;15.60;;
14892;SDS011;7538;53.626;9.906;2022-10-30T03:56:23;20.65;;;16.17;;
14892;SDS011;7538;53.626;9.906;2022-10-30T03:58:50;18.33;;;16.33;;
14892;SDS011;7538;53.626;9.906;2022-10-30T04:01:16;22.02;;;16.35;;
14892;SDS011;7538;53.626;9.906;2022-10-30T04:03:44;18.42;;;15.57;;
14892;SDS011;7538;53.626;9.906;2022-10-30T04:06:11;19.48;;;15.70;;
14892;SDS011;7538;53.626;9.906;2022-10-30T04:08:38;19.05;;;15.57;;
14892;SDS011;7538;53.626;9.906;2022-10-30T04:11:05;18.48;;;15.77;;
14892;SDS011;7538;53.626;9.906;2022-10-30T04:13:34;19.02;;;16.27;;
14892;SDS011;7538;53.626;9.906;2022-10-30T04:16:01;18.85;;;16.05;;
14892;SDS011;7538;53.626;9.906;2022-10-30T04:18:27;22.17;;;16.05;;
14892;SDS011;7538;53.626;9.906;2022-10-30T04:20:57;23.45;;;16.80;;
14892;SDS011;7538;53.626;9.906;2022-10-30T04:23:24;20.08;;;15.80;;
14892;SDS011;7538;53.626;9.906;2022-10-30T04:25:51;19.90;;;15.70;;
14892;SDS011;7538;53.626;9.906;2022-10-30T04:28:18;23.00;;;16.88;;
14892;SDS011;7538;53.626;9.906;2022-10-30T04:30:46;19.65;;;14.82;;
14892;SDS011;7538;53.626;9.906;2022-10-30T04:33:13;19.92;;;15.63;;
14892;SDS011;7538;53.626;9.906;2022-10-30T04:35:40;20.42;;;15.85;;
14892;SDS011;7538;53.626;9.906;2022-10-30T04:38:09;18.67;;;13.95;;
14892;SDS011;7538;53.626;9.906;2022-10-30T04:40:38;18.25;;;13.40;;
14892;SDS011;7538;53.626;9.906;2022-10-30T04:43:06;22.20;;;14.82;;
14892;SDS011;7538;53.626;9.906;2022-10-30T04:45:33;18.35;;;14.82;;
14892;SDS011;7538;53.626;9.906;2022-10-30T04:48:01;16.65;;;13.63;;
14892;SDS011;7538;53.626;9.906;2022-10-30T04:50:29;17.30;;;14.15;;
14892;SDS011;7538;53.626;9.906;2022-10-30T04:52:59;16.70;;;14.32;;
14892;SDS011;7538;53.626;9.906;2022-10-30T04:55:28;17.92;;;13.52;;
14892;SDS011;7538;53.626;9.906;2022-10-30T04:57:56;20.10;;;15.05;;
14892;SDS011;7538;53.626;9.906;2022-10-30T05:00:23;15.90;;;13.68;;
14892;SDS011;7538;53.626;9.906;2022-10-30T05:02:51;17.63;;;14.23;;
14892;SDS011;7538;53.626;9.906;2022-10-30T05:05:18;19.67;;;14.15;;
14892;SDS011;7538;53.626;9.906;2022-10-30T05:07:45;19.45;;;13.88;;
14892;SDS011;7538;53.626;9.906;2022-10-30T05:10:12;18.55;;;13.60;;
14892;SDS011;7538;53.626;9.906;2022-10-30T05:12:42;22.13;;;14.15;;
14892;SDS011;7538;53.626;9.906;2022-10-30T05:15:09;18.48;;;14.23;;
14892;SDS011;7538;53.626;9.906;2022-10-30T05:17:37;20.38;;;12.93;;
14892;SDS011;7538;53.626;9.906;2022-10-30T05:20:04;18.45;;;13.60;;
14892;SDS011;7538;53.626;9.906;2022-10-30T05:22:32;19.50;;;13.95;;
14892;SDS011;7538;53.626;9.906;2022-10-30T05:24:59;18.85;;;14.20;;
14892;SDS011;7538;53.626;9.906;2022-10-30T05:27:25;17.33;;;12.95;;
14892;SDS011;7538;53.626;9.906;2022-10-30T05:29:53;16.95;;;12.65;;
14892;SDS011;7538;53.626;9.906;2022-10-30T05:32:21;17.70;;;13.25;;
14892;SDS011;7538;53.626;9.906;2022-10-30T05:34:48;18.73;;;13.13;;
14892;SDS011;7538;53.626;9.906;2022-10-30T05:37:14;14.80;;;12.30;;
14892;SDS011;7538;53.626;9.906;2022-10-30T05:39:41;16.13;;;13.07;;
14892;SDS011;7538;53.626;9.906;2022-10-30T05:42:08;13.57;;;12.18;;
14892;SDS011;7538;53.626;9.906;2022-10-30T05:44:35;15.23;;;12.07;;
14892;SDS011;7538;53.626;9.906;2022-10-30T05:47:03;18.02;;;12.90;;
14892;SDS011;7538;53.626;9.906;2022-10-30T05:49:29;16.58;;;11.88;;
14892;SDS011;7538;53.626;9.906;2022-10-30T05:51:56;16.17;;;12.60;;
14892;SDS011;7538;53.626;9.906;2022-10-30T05:54:23;15.65;;;12.05;;
14892;SDS011;7538;53.626;9.906;2022-10-30T05:56:50;15.35;;;12.43;;
14892;SDS011;7538;53.626;9.906;2022-10-30T05:59:17;16.20;;;12.02;;
14892;SDS011;7538;53.626;9.906;2022-10-30T06:01:43;13.45;;;12.05;;
14892;SDS011;7538;53.626;9.906;2022-10-30T06:04:12;12.85;;;10.77;;
14892;SDS011;7538;53.626;9.906;2022-10-30T06:06:38;17.85;;;12.27;;
14892;SDS011;7538;53.626;9.906;2022-10-30T06:09:05;15.27;;;11.95;;
14892;SDS011;7538;53.626;9.906;2022-10-30T06:11:32;12.27;;;10.93;;
14892;SDS011;7538;53.626;9.906;2022-10-30T06:13:59;17.67;;;11.40;;
14892;SDS011;7538;53.626;9.906;2022-10-30T06:16:25;13.63;;;11.43;;
14892;SDS011;7538;53.626;9.906;2022-10-30T06:18:52;14.10;;;11.02;;
14892;SDS011;7538;53.626;9.906;2022-10-30T06:21:20;13.52;;;10.85;;
14892;SDS011;7538;53.626;9.906;2022-10-30T06:23:47;13.70;;;10.80;;
14892;SDS011;7538;53.626;9.906;2022-10-30T06:26:14;14.07;;;11.18;;
14892;SDS011;7538;53.626;9.906;2022-10-30T06:28:41;13.00;;;11.07;;
14892;SDS011;7538;53.626;9.906;2022-10-30T06:31:07;14.27;;;11.35;;
14892;SDS011;7538;53.626;9.906;2022-10-30T06:33:34;15.48;;;12.38;;
14892;SDS011;7538;53.626;9.906;2022-10-30T06:36:01;16.23;;;12.43;;
14892;SDS011;7538;53.626;9.906;2022-10-30T06:38:29;13.85;;;11.38;;
14892;SDS011;7538;53.626;9.906;2022-10-30T06:40:56;17.20;;;12.50;;
14892;SDS011;7538;53.626;9.906;2022-10-30T06:43:23;16.58;;;11.57;;
14892;SDS011;7538;53.626;9.906;2022-10-30T06:45:50;13.77;;;11.07;;
14892;SDS011;7538;53.626;9.906;2022-10-30T06:48:16;15.20;;;11.55;;
14892;SDS011;7538;53.626;9.906;2022-10-30T06:50:43;14.38;;;11.23;;
14892;SDS011;7538;53.626;9.906;2022-10-30T06:53:10;15.07;;;11.27;;
14892;SDS011;7538;53.626;9.906;2022-10-30T06:55:38;15.10;;;11.02;;
14892;SDS011;7538;53.626;9.906;2022-10-30T06:58:05;15.13;;;11.25;;
14892;SDS011;7538;53.626;9.906;2022-10-30T07:00:31;13.68;;;10.95;;
14892;SDS011;7538;53.626;9.906;2022-10-30T07:02:58;15.63;;;11.15;;
14892;SDS011;7538;53.626;9.906;2022-10-30T07:05:28;18.75;;;12.70;;
14892;SDS011;7538;53.626;9.906;2022-10-30T07:07:55;14.50;;;11.05;;
14892;SDS011;7538;53.626;9.906;2022-10-30T07:10:23;16.27;;;11.57;;
14892;SDS011;7538;53.626;9.906;2022-10-30T07:12:51;12.90;;;10.70;;
14892;SDS011;7538;53.626;9.906;2022-10-30T07:15:19;14.20;;;11.07;;
14892;SDS011;7538;53.626;9.906;2022-10-30T07:17:53;17.75;;;10.48;;
14892;SDS011;7538;53.626;9.906;2022-10-30T07:20:20;13.57;;;10.45;;
14892;SDS011;7538;53.626;9.906;2022-10-30T07:22:47;16.70;;;11.20;;
14892;SDS011;7538;53.626;9.906;2022-10-30T07:25:14;14.05;;;10.30;;
14892;SDS011;7538;53.626;9.906;2022-10-30T07:27:41;14.02;;;9.77;;
14892;SDS011;7538;53.626;9.906;2022-10-30T07:30:10;11.35;;;8.98;;
14892;SDS011;7538;53.626;9.906;2022-10-30T07:32:38;12.35;;;10.05;;
14892;SDS011;7538;53.626;9.906;2022-10-30T07:35:05;13.05;;;9.90;;
14892;SDS011;7538;53.626;9.906;2022-10-30T07:37:32;12.98;;;10.20;;
14892;SDS011;7538;53.626;9.906;2022-10-30T07:39:59;16.40;;;10.18;;
14892;SDS011;7538;53.626;9.906;2022-10-30T07:42:26;14.02;;;10.25;;
14892;SDS011;7538;53.626;9.906;2022-10-30T07:44:52;15.80;;;11.32;;
14892;SDS011;7538;53.626;9.906;2022-10-30T07:47:21;13.95;;;10.30;;
14892;SDS011;7538;53.626;9.906;2022-10-30T07:49:47;13.80;;;10.35;;
14892;SDS011;7538;53.626;9.906;2022-10-30T07:52:14;13.40;;;10.18;;
14892;SDS011;7538;53.626;9.906;2022-10-30T07:54:41;12.68;;;9.73;;
14892;SDS011;7538;53.626;9.906;2022-10-30T07:57:08;11.80;;;8.93;;
14892;SDS011;7538;53.626;9.906;2022-10-30T07:59:35;16.42;;;9.93;;
14892;SDS011;7538;53.626;9.906;2022-10-30T08:02:01;13.77;;;9.13;;
14892;SDS011;7538;53.626;9.906;2022-10-30T08:04:30;14.93;;;9.88;;
14892;SDS011;7538;53.626;9.906;2022-10-30T08:06:56;11.57;;;8.93;;
14892;SDS011;7538;53.626;9.906;2022-10-30T08:09:23;15.18;;;9.68;;
14892;SDS011;7538;53.626;9.906;2022-10-30T08:11:50;11.60;;;8.43;;
14892;SDS011;7538;53.626;9.906;2022-10-30T08:14:17;12.40;;;8.15;;
14892;SDS011;7538;53.626;9.906;2022-10-30T08:16:45;17.33;;;9.32;;
14892;SDS011;7538;53.626;9.906;2022-10-30T08:19:11;10.43;;;7.82;;
14892;SDS011;7538;53.626;9.906;2022-10-30T08:21:39;10.20;;;8.82;;
14892;SDS011;7538;53.626;9.906;2022-10-30T08:24:06;13.10;;;8.55;;
14892;SDS011;7538;53.626;9.906;2022-10-30T08:26:33;14.65;;;8.90;;
14892;SDS011;7538;53.626;9.906;2022-10-30T08:29:00;11.40;;;8.38;;
14892;SDS011;7538;53.626;9.906;2022-10-30T08:31:27;12.65;;;8.48;;
14892;SDS011;7538;53.626;9.906;2022-10-30T08:33:54;13.30;;;8.45;;
14892;SDS011;7538;53.626;9.906;2022-10-30T08:36:20;14.80;;;9.02;;
14892;SDS011;7538;53.626;9.906;2022-10-30T08:38:48;14.50;;;8.43;;
14892;SDS011;7538;53.626;9.906;2022-10-30T08:41:15;14.18;;;8.65;;
14892;SDS011;7538;53.626;9.906;2022-10-30T08:43:42;12.15;;;8.88;;
14892;SDS011;7538;53.626;9.906;2022-10-30T08:46:09;14.45;;;9.35;;
14892;SDS011;7538;53.626;9.906;2022-10-30T08:48:35;15.20;;;8.88;;
14892;SDS011;7538;53.626;9.906;2022-10-30T08:51:02;12.13;;;8.52;;
14892;SDS011;7538;53.626;9.906;2022-10-30T08:53:31;9.98;;;8.20;;
14892;SDS011;7538;53.626;9.906;2022-10-30T08:55:59;11.30;;;7.53;;
14892;SDS011;7538;53.626;9.906;2022-10-30T08:58:26;11.32;;;7.43;;
14892;SDS011;7538;53.626;9.906;2022-10-30T09:00:52;16.48;;;8.23;;
14892;SDS011;7538;53.626;9.906;2022-10-30T09:03:19;13.20;;;8.30;;
14892;SDS011;7538;53.626;9.906;2022-10-30T09:05:46;11.00;;;7.85;;
14892;SDS011;7538;53.626;9.906;2022-10-30T09:08:13;13.43;;;8.20;;
14892;SDS011;7538;53.626;9.906;2022-10-30T09:10:39;13.02;;;8.15;;
14892;SDS011;7538;53.626;9.906;2022-10-30T09:13:08;17.92;;;7.93;;
14892;SDS011;7538;53.626;9.906;2022-10-30T09:15:35;11.65;;;7.20;;
14892;SDS011;7538;53.626;9.906;2022-10-30T09:18:03;9.85;;;7.68;;
14892;SDS011;7538;53.626;9.906;2022-10-30T09:20:30;10.70;;;8.48;;
14892;SDS011;7538;53.626;9.906;2022-10-30T09:22:57;11.77;;;8.07;;
14892;SDS011;7538;53.626;9.906;2022-10-30T09:25:24;14.32;;;7.93;;
14892;SDS011;7538;53.626;9.906;2022-10-30T09:27:51;12.05;;;7.45;;
14892;SDS011;7538;53.626;9.906;2022-10-30T09:30:19;11.60;;;7.47;;
14892;SDS011;7538;53.626;9.906;2022-10-30T09:32:52;15.52;;;7.85;;
14892;SDS011;7538;53.626;9.906;2022-10-30T09:35:19;12.75;;;7.35;;
14892;SDS011;7538;53.626;9.906;2022-10-30T09:37:46;11.15;;;8.48;;
14892;SDS011;7538;53.626;9.906;2022-10-30T09:40:16;13.60;;;8.73;;
14892;SDS011;7538;53.626;9.906;2022-10-30T09:42:48;14.85;;;9.10;;
14892;SDS011;7538;53.626;9.906;2022-10-30T09:45:27;16.38;;;9.10;;
14892;SDS011;7538;53.626;9.906;2022-10-30T09:48:28;16.33;;;8.80;;
14892;SDS011;7538;53.626;9.906;2022-10-30T09:51:09;13.82;;;8.48;;
14892;SDS011;7538;53.626;9.906;2022-10-30T09:53:48;11.25;;;7.68;;
14892;SDS011;7538;53.626;9.906;2022-10-30T09:56:26;12.90;;;8.07;;
14892;SDS011;7538;53.626;9.906;2022-10-30T09:58:59;16.65;;;9.10;;
14892;SDS011;7538;53.626;9.906;2022-10-30T10:01:38;14.98;;;8.95;;
14892;SDS011;7538;53.626;9.906;2022-10-30T10:04:11;13.13;;;8.63;;
14892;SDS011;7538;53.626;9.906;2022-10-30T10:06:46;12.30;;;8.10;;
14892;SDS011;7538;53.626;9.906;2022-10-30T10:09:20;15.45;;;8.65;;
14892;SDS011;7538;53.626;9.906;2022-10-30T10:11:52;12.27;;;8.40;;
14892;SDS011;7538;53.626;9.906;2022-10-30T10:14:22;13.98;;;8.85;;
14892;SDS011;7538;53.626;9.906;2022-10-30T10:16:52;15.93;;;8.80;;
14892;SDS011;7538;53.626;9.906;2022-10-30T10:19:21;13.82;;;8.82;;
14892;SDS011;7538;53.626;9.906;2022-10-30T10:21:54;13.13;;;9.52;;
14892;SDS011;7538;53.626;9.906;2022-10-30T10:24:24;14.40;;;8.98;;
14892;SDS011;7538;53.626;9.906;2022-10-30T10:26:53;15.02;;;9.23;;
14892;SDS011;7538;53.626;9.906;2022-10-30T10:29:33;14.15;;;8.77;;
14892;SDS011;7538;53.626;9.906;2022-10-30T10:32:16;14.98;;;9.55;;
14892;SDS011;7538;53.626;9.906;2022-10-30T10:35:09;15.52;;;9.70;;
14892;SDS011;7538;53.626;9.906;2022-10-30T10:37:47;12.38;;;8.18;;
14892;SDS011;7538;53.626;9.906;2022-10-30T10:40:26;14.00;;;9.35;;
14892;SDS011;7538;53.626;9.906;2022-10-30T10:43:08;11.38;;;7.90;;
14892;SDS011;7538;53.626;9.906;2022-10-30T10:45:43;11.40;;;8.23;;
14892;SDS011;7538;53.626;9.906;2022-10-30T10:51:03;14.73;;;8.10;;
14892;SDS011;7538;53.626;9.906;2022-10-30T10:53:37;11.95;;;8.18;;
14892;SDS011;7538;53.626;9.906;2022-10-30T10:56:09;16.10;;;9.27;;
14892;SDS011;7538;53.626;9.906;2022-10-30T10:58:38;15.15;;;8.85;;
14892;SDS011;7538;53.626;9.906;2022-10-30T11:01:11;15.65;;;9.88;;
14892;SDS011;7538;53.626;9.906;2022-10-30T11:03:44;15.55;;;9.77;;
14892;SDS011;7538;53.626;9.906;2022-10-30T11:06:17;14.00;;;8.35;;
14892;SDS011;7538;53.626;9.906;2022-10-30T11:08:46;14.25;;;9.50;;
14892;SDS011;7538;53.626;9.906;2022-10-30T11:11:14;16.63;;;9.18;;
14892;SDS011;7538;53.626;9.906;2022-10-30T11:13:41;19.55;;;10.02;;
14892;SDS011;7538;53.626;9.906;2022-10-30T11:16:14;14.18;;;10.38;;
14892;SDS011;7538;53.626;9.906;2022-10-30T11:18:52;19.63;;;9.60;;
14892;SDS011;7538;53.626;9.906;2022-10-30T11:21:22;19.10;;;9.13;;
14892;SDS011;7538;53.626;9.906;2022-10-30T11:23:50;11.45;;;8.07;;
14892;SDS011;7538;53.626;9.906;2022-10-30T11:26:31;12.98;;;7.53;;
14892;SDS011;7538;53.626;9.906;2022-10-30T11:29:10;15.40;;;8.75;;
14892;SDS011;7538;53.626;9.906;2022-10-30T11:31:39;16.52;;;8.68;;
14892;SDS011;7538;53.626;9.906;2022-10-30T11:34:19;15.25;;;8.23;;
14892;SDS011;7538;53.626;9.906;2022-10-30T11:36:51;10.30;;;7.72;;
14892;SDS011;7538;53.626;9.906;2022-10-30T11:39:20;15.80;;;9.32;;
14892;SDS011;7538;53.626;9.906;2022-10-30T11:41:53;12.20;;;7.97;;
14892;SDS011;7538;53.626;9.906;2022-10-30T11:44:26;16.33;;;9.35;;
14892;SDS011;7538;53.626;9.906;2022-10-30T11:46:56;13.00;;;8.15;;
14892;SDS011;7538;53.626;9.906;2022-10-30T11:49:30;14.25;;;9.25;;
14892;SDS011;7538;53.626;9.906;2022-10-30T11:52:02;12.63;;;7.85;;
14892;SDS011;7538;53.626;9.906;2022-10-30T11:54:33;13.52;;;9.20;;
14892;SDS011;7538;53.626;9.906;2022-10-30T11:57:02;14.93;;;8.77;;
14892;SDS011;7538;53.626;9.906;2022-10-30T11:59:30;14.32;;;9.18;;
14892;SDS011;7538;53.626;9.906;2022-10-30T12:01:57;14.43;;;9.80;;
14892;SDS011;7538;53.626;9.906;2022-10-30T12:04:26;11.07;;;7.68;;
14892;SDS011;7538;53.626;9.906;2022-10-30T12:07:07;11.35;;;7.22;;
14892;SDS011;7538;53.626;9.906;2022-10-30T12:09:42;11.00;;;7.10;;
14892;SDS011;7538;53.626;9.906;2022-10-30T12:12:10;17.65;;;9.80;;
14892;SDS011;7538;53.626;9.906;2022-10-30T12:14:37;13.82;;;8.05;;
14892;SDS011;7538;53.626;9.906;2022-10-30T12:17:04;15.57;;;7.95;;
14892;SDS011;7538;53.626;9.906;2022-10-30T12:19:31;12.20;;;8.52;;
14892;SDS011;7538;53.626;9.906;2022-10-30T12:21:59;13.93;;;7.65;;
14892;SDS011;7538;53.626;9.906;2022-10-30T12:24:29;15.98;;;8.30;;
14892;SDS011;7538;53.626;9.906;2022-10-30T12:27:00;16.65;;;9.55;;
14892;SDS011;7538;53.626;9.906;2022-10-30T12:29:34;13.23;;;9.00;;
14892;SDS011;7538;53.626;9.906;2022-10-30T12:32:06;12.43;;;8.60;;
14892;SDS011;7538;53.626;9.906;2022-10-30T12:34:37;13.50;;;8.70;;
14892;SDS011;7538;53.626;9.906;2022-10-30T12:37:10;14.45;;;8.95;;
14892;SDS011;7538;53.626;9.906;2022-10-30T12:39:48;14.18;;;8.93;;
14892;SDS011;7538;53.626;9.906;2022-10-30T12:42:21;10.73;;;8.25;;
14892;SDS011;7538;53.626;9.906;2022-10-30T12:44:50;19.63;;;10.30;;
14892;SDS011;7538;53.626;9.906;2022-10-30T12:47:27;15.32;;;9.70;;
14892;SDS011;7538;53.626;9.906;2022-10-30T12:49:59;12.88;;;8.05;;
14892;SDS011;7538;53.626;9.906;2022-10-30T12:52:32;10.55;;;7.35;;
14892;SDS011;7538;53.626;9.906;2022-10-30T12:55:04;10.50;;;8.23;;
14892;SDS011;7538;53.626;9.906;2022-10-30T12:57:41;13.65;;;7.65;;
14892;SDS011;7538;53.626;9.906;2022-10-30T13:00:12;11.77;;;7.75;;
14892;SDS011;7538;53.626;9.906;2022-10-30T13:02:46;11.35;;;7.85;;
14892;SDS011;7538;53.626;9.906;2022-10-30T13:05:23;14.02;;;8.13;;
14892;SDS011;7538;53.626;9.906;2022-10-30T13:07:57;10.57;;;7.65;;
14892;SDS011;7538;53.626;9.906;2022-10-30T13:10:34;13.85;;;8.82;;
14892;SDS011;7538;53.626;9.906;2022-10-30T13:13:08;14.18;;;8.93;;
14892;SDS011;7538;53.626;9.906;2022-10-30T13:15:40;14.00;;;9.75;;
14892;SDS011;7538;53.626;9.906;2022-10-30T13:18:15;14.00;;;8.98;;
14892;SDS011;7538;53.626;9.906;2022-10-30T13:20:47;14.43;;;9.70;;
14892;SDS011;7538;53.626;9.906;2022-10-30T13:23:27;13.23;;;7.95;;
14892;SDS011;7538;53.626;9.906;2022-10-30T13:26:05;12.65;;;8.50;;
14892;SDS011;7538;53.626;9.906;2022-10-30T13:28:39;10.75;;;7.43;;
14892;SDS011;7538;53.626;9.906;2022-10-30T13:31:14;15.38;;;9.85;;
14892;SDS011;7538;53.626;9.906;2022-10-30T13:33:49;18.20;;;9.50;;
14892;SDS011;7538;53.626;9.906;2022-10-30T13:36:23;12.05;;;8.15;;
14892;SDS011;7538;53.626;9.906;2022-10-30T13:38:58;11.65;;;8.07;;
14892;SDS011;7538;53.626;9.906;2022-10-30T13:41:31;17.77;;;8.70;;
14892;SDS011;7538;53.626;9.906;2022-10-30T13:44:07;17.70;;;8.35;;
14892;SDS011;7538;53.626;9.906;2022-10-30T13:46:57;12.15;;;8.05;;
14892;SDS011;7538;53.626;9.906;2022-10-30T13:49:35;11.18;;;7.65;;
14892;SDS011;7538;53.626;9.906;2022-10-30T13:52:14;11.13;;;7.57;;
14892;SDS011;7538;53.626;9.906;2022-10-30T13:54:43;10.73;;;6.80;;
14892;SDS011;7538;53.626;9.906;2022-10-30T13:57:19;11.13;;;7.07;;
14892;SDS011;7538;53.626;9.906;2022-10-30T13:59:58;8.07;;;6.82;;
14892;SDS011;7538;53.626;9.906;2022-10-30T14:02:39;8.15;;;6.00;;
14892;SDS011;7538;53.626;9.906;2022-10-30T14:05:26;12.38;;;7.45;;
14892;SDS011;7538;53.626;9.906;2022-10-30T14:08:02;9.10;;;7.10;;
14892;SDS011;7538;53.626;9.906;2022-10-30T14:10:42;9.25;;;7.20;;
14892;SDS011;7538;53.626;9.906;2022-10-30T14:13:14;11.13;;;6.82;;
14892;SDS011;7538;53.626;9.906;2022-10-30T14:15:52;12.43;;;7.10;;
14892;SDS011;7538;53.626;9.906;2022-10-30T14:18:28;12.00;;;7.38;;
14892;SDS011;7538;53.626;9.906;2022-10-30T14:20:57;11.55;;;7.55;;
14892;SDS011;7538;53.626;9.906;2022-10-30T14:23:26;11.75;;;6.90;;
14892;SDS011;7538;53.626;9.906;2022-10-30T14:26:13;10.98;;;8.15;;
14892;SDS011;7538;53.626;9.906;2022-10-30T14:28:45;11.50;;;8.10;;
14892;SDS011;7538;53.626;9.906;2022-10-30T14:31:14;12.88;;;7.22;;
14892;SDS011;7538;53.626;9.906;2022-10-30T14:33:43;9.35;;;6.97;;
14892;SDS011;7538;53.626;9.906;2022-10-30T14:36:12;12.32;;;7.22;;
14892;SDS011;7538;53.626;9.906;2022-10-30T14:38:41;12.80;;;8.25;;
14892;SDS011;7538;53.626;9.906;2022-10-30T14:41:18;11.13;;;7.10;;
14892;SDS011;7538;53.626;9.906;2022-10-30T14:44:04;13.18;;;7.55;;
14892;SDS011;7538;53.626;9.906;2022-10-30T14:46:42;11.02;;;6.97;;
14892;SDS011;7538;53.626;9.906;2022-10-30T14:49:30;10.52;;;7.22;;
14892;SDS011;7538;53.626;9.906;2022-10-30T14:52:10;12.98;;;7.55;;
14892;SDS011;7538;53.626;9.906;2022-10-30T14:54:44;10.30;;;7.55;;
14892;SDS011;7538;53.626;9.906;2022-10-30T14:57:20;10.15;;;7.03;;
14892;SDS011;7538;53.626;9.906;2022-10-30T14:59:49;11.05;;;7.68;;
14892;SDS011;7538;53.626;9.906;2022-10-30T15:03:03;10.93;;;7.43;;